createdAt,value
2019-03-05T00:00:31.312Z,1.40
2019-03-05T00:02:59.590Z,1.50
2019-03-05T00:05:28.605Z,1.20
2019-03-05T00:07:56.956Z,1.27
2019-03-05T00:10:25.846Z,1.57
2019-03-05T00:12:54.181Z,1.60
2019-03-05T00:15:24.293Z,1.60
2019-03-05T00:17:52.602Z,1.53
2019-03-05T00:20:21.017Z,1.63
2019-03-05T00:22:49.990Z,1.80
2019-03-05T00:25:26.888Z,1.80
2019-03-05T00:28:08.169Z,1.50
2019-03-05T00:30:39.806Z,1.60
2019-03-05T00:33:23.296Z,1.43
2019-03-05T00:36:00.788Z,1.50
2019-03-05T00:38:58.416Z,1.60
2019-03-05T00:41:44.996Z,1.63
2019-03-05T00:44:33.918Z,1.80
2019-03-05T00:47:11.073Z,1.70
2019-03-05T00:50:00.517Z,1.40
2019-03-05T00:52:41.018Z,1.87
2019-03-05T00:55:27.858Z,1.37
2019-03-05T00:58:11.461Z,1.70
2019-03-05T01:00:54.977Z,1.73
2019-03-05T01:03:32.527Z,1.70
2019-03-05T01:06:17.010Z,1.63
2019-03-05T01:08:45.418Z,2.07
2019-03-05T01:11:13.779Z,2.10
2019-03-05T01:13:42.387Z,2.20
2019-03-05T01:16:12.335Z,2.30
2019-03-05T01:18:40.610Z,2.37
2019-03-05T01:21:08.950Z,1.77
2019-03-05T01:23:40.197Z,1.80
2019-03-05T01:26:08.832Z,1.83
2019-03-05T01:28:37.076Z,2.00
2019-03-05T01:31:07.007Z,1.73
2019-03-05T01:33:36.891Z,1.60
2019-03-05T01:36:10.000Z,1.90
2019-03-05T01:38:54.905Z,1.70
2019-03-05T01:41:23.196Z,2.00
2019-03-05T01:43:51.459Z,1.57
2019-03-05T01:46:20.250Z,1.47
2019-03-05T01:48:48.494Z,1.60
2019-03-05T01:51:17.220Z,1.90
2019-03-05T01:53:45.531Z,1.60
2019-03-05T01:56:13.811Z,1.63
2019-03-05T01:58:42.421Z,1.67
2019-03-05T02:01:10.694Z,1.57
2019-03-05T02:03:39.233Z,1.63
2019-03-05T02:06:07.886Z,1.60
2019-03-05T02:08:36.135Z,2.10
2019-03-05T02:11:04.879Z,1.70
2019-03-05T02:13:33.205Z,2.00
2019-03-05T02:16:01.484Z,1.67
2019-03-05T02:18:29.760Z,1.47
2019-03-05T02:20:58.347Z,1.87
2019-03-05T02:23:35.889Z,1.70
2019-03-05T02:26:13.308Z,1.57
2019-03-05T02:28:54.141Z,1.80
2019-03-05T02:31:45.845Z,1.80
2019-03-05T02:34:41.313Z,1.70
2019-03-05T02:37:17.442Z,1.73
2019-03-05T02:40:13.137Z,1.87
2019-03-05T02:42:53.658Z,1.90
2019-03-05T02:45:34.185Z,1.87
2019-03-05T02:48:37.152Z,2.07
2019-03-05T02:51:20.482Z,1.93
2019-03-05T02:54:23.983Z,2.10
2019-03-05T02:57:09.460Z,1.90
2019-03-05T02:59:38.165Z,2.10
2019-03-05T03:02:08.772Z,2.00
2019-03-05T03:04:41.596Z,2.00
2019-03-05T03:07:09.935Z,2.10
2019-03-05T03:09:41.467Z,2.07
2019-03-05T03:12:10.291Z,2.37
2019-03-05T03:14:38.568Z,2.30
2019-03-05T03:17:06.989Z,2.00
2019-03-05T03:19:35.350Z,2.47
2019-03-05T03:22:03.606Z,2.33
2019-03-05T03:24:31.967Z,2.50
2019-03-05T03:27:00.217Z,2.17
2019-03-05T03:29:28.825Z,2.53
2019-03-05T03:31:57.089Z,2.73
2019-03-05T03:34:25.506Z,3.20
2019-03-05T03:36:53.871Z,2.57
2019-03-05T03:39:22.392Z,2.43
2019-03-05T03:41:51.018Z,2.93
2019-03-05T03:44:19.380Z,2.60
2019-03-05T03:46:48.692Z,2.67
2019-03-05T03:49:16.961Z,5.33
2019-03-05T03:51:45.270Z,5.53
2019-03-05T03:54:13.586Z,3.07
2019-03-05T03:56:42.026Z,2.87
2019-03-05T03:59:11.468Z,2.57
2019-03-05T04:01:41.010Z,2.97
2019-03-05T04:04:09.254Z,2.43
2019-03-05T04:06:37.668Z,2.30
2019-03-05T04:09:07.813Z,2.67
2019-03-05T04:11:36.086Z,2.60
2019-03-05T04:14:04.337Z,2.27
2019-03-05T04:16:33.632Z,2.30
2019-03-05T04:19:03.518Z,2.00
2019-03-05T04:21:31.822Z,1.87
2019-03-05T04:24:00.133Z,2.10
2019-03-05T04:26:28.570Z,2.00
2019-03-05T04:28:56.889Z,2.10
2019-03-05T04:31:25.170Z,1.90
2019-03-05T04:33:53.430Z,2.27
2019-03-05T04:36:21.765Z,2.20
2019-03-05T04:38:50.004Z,1.90
2019-03-05T04:41:18.566Z,2.00
2019-03-05T04:43:46.820Z,1.90
2019-03-05T04:46:31.872Z,2.10
2019-03-05T04:49:17.465Z,1.90
2019-03-05T04:51:50.130Z,1.80
2019-03-05T04:54:18.382Z,1.80
2019-03-05T04:56:46.844Z,2.00
2019-03-05T04:59:15.172Z,2.00
2019-03-05T05:01:43.442Z,2.33
2019-03-05T05:04:11.893Z,2.07
2019-03-05T05:06:40.236Z,2.00
2019-03-05T05:09:08.488Z,2.47
2019-03-05T05:11:36.760Z,2.10
2019-03-05T05:14:05.065Z,1.90
2019-03-05T05:16:33.609Z,2.10
2019-03-05T05:19:02.202Z,1.90
2019-03-05T05:21:30.809Z,1.83
2019-03-05T05:23:59.040Z,2.00
2019-03-05T05:26:27.315Z,1.83
2019-03-05T05:28:55.561Z,1.70
2019-03-05T05:31:23.854Z,1.87
2019-03-05T05:33:52.179Z,1.90
2019-03-05T05:36:20.459Z,2.00
2019-03-05T05:38:48.693Z,2.03
2019-03-05T05:41:16.991Z,1.73
2019-03-05T05:43:45.683Z,1.70
2019-03-05T05:46:13.969Z,2.23
2019-03-05T05:48:42.290Z,2.20
2019-03-05T05:51:10.558Z,2.10
2019-03-05T05:53:38.837Z,2.07
2019-03-05T05:56:07.169Z,2.30
2019-03-05T05:58:35.771Z,1.87
2019-03-05T06:01:05.986Z,2.03
2019-03-05T06:03:34.286Z,2.20
2019-03-05T06:06:02.539Z,2.10
2019-03-05T06:08:30.829Z,2.07
2019-03-05T06:10:59.192Z,1.90
2019-03-05T06:13:27.473Z,1.90
2019-03-05T06:15:55.811Z,2.30
2019-03-05T06:18:24.087Z,1.73
2019-03-05T06:20:52.343Z,2.23
2019-03-05T06:23:20.700Z,2.10
2019-03-05T06:25:48.953Z,1.90
2019-03-05T06:28:17.552Z,1.83
2019-03-05T06:30:46.259Z,2.17
2019-03-05T06:33:14.660Z,2.27
2019-03-05T06:35:43.288Z,1.90
2019-03-05T06:38:11.650Z,1.70
2019-03-05T06:40:39.971Z,2.13
2019-03-05T06:43:08.323Z,2.00
2019-03-05T06:45:36.580Z,2.30
2019-03-05T06:48:04.853Z,1.60
2019-03-05T06:50:33.276Z,1.60
2019-03-05T06:53:01.547Z,1.73
2019-03-05T06:55:29.794Z,1.80
2019-03-05T06:57:58.061Z,1.77
2019-03-05T07:00:32.512Z,1.77
2019-03-05T07:03:01.114Z,1.47
2019-03-05T07:06:06.375Z,1.67
2019-03-05T07:08:37.945Z,1.63
2019-03-05T07:11:21.056Z,1.40
2019-03-05T07:13:51.076Z,1.30
2019-03-05T07:16:34.309Z,1.53
2019-03-05T07:19:03.046Z,1.70
2019-03-05T07:21:49.450Z,1.80
2019-03-05T07:24:44.448Z,2.23
2019-03-05T07:27:14.338Z,1.70
2019-03-05T07:29:42.614Z,1.43
2019-03-05T07:32:10.879Z,1.60
2019-03-05T07:34:40.815Z,1.63
2019-03-05T07:37:09.954Z,1.77
2019-03-05T07:39:38.582Z,1.60
2019-03-05T07:42:07.391Z,2.07
2019-03-05T07:44:35.657Z,2.10
2019-03-05T07:47:04.227Z,2.17
2019-03-05T07:49:43.213Z,2.00
2019-03-05T07:52:02.958Z,2.47
2019-03-05T07:54:31.270Z,1.83
2019-03-05T07:56:59.516Z,2.20
2019-03-05T07:59:27.822Z,2.07
2019-03-05T08:01:56.066Z,2.70
2019-03-05T08:04:24.359Z,2.30
2019-03-05T08:06:52.615Z,2.50
2019-03-05T08:09:33.152Z,2.40
2019-03-05T08:12:25.960Z,2.17
2019-03-05T08:15:03.625Z,2.30
2019-03-05T08:17:31.870Z,2.20
2019-03-05T08:20:00.470Z,2.17
2019-03-05T08:22:29.047Z,1.90
2019-03-05T08:24:57.392Z,1.97
2019-03-05T08:27:26.129Z,1.90
2019-03-05T08:29:54.398Z,2.13
2019-03-05T08:32:22.675Z,2.20
2019-03-05T08:34:51.294Z,2.10
2019-03-05T08:37:19.587Z,2.50
2019-03-05T08:39:48.326Z,2.13
2019-03-05T08:42:16.592Z,1.80
2019-03-05T08:44:50.371Z,2.03
2019-03-05T08:47:14.841Z,2.03
2019-03-05T08:49:43.105Z,2.30
2019-03-05T08:52:11.622Z,2.23
2019-03-05T08:54:39.913Z,5.90
2019-03-05T08:57:08.493Z,7.63
2019-03-05T08:59:36.817Z,2.60
2019-03-05T09:02:05.077Z,2.37
2019-03-05T09:04:33.404Z,2.37
2019-03-05T09:07:01.727Z,2.00
2019-03-05T09:09:30.026Z,2.70
2019-03-05T09:11:58.416Z,2.70
2019-03-05T09:14:26.696Z,2.67
2019-03-05T09:16:54.953Z,2.20
2019-03-05T09:19:23.228Z,2.23
2019-03-05T09:21:51.495Z,2.10
2019-03-05T09:24:19.766Z,2.07
2019-03-05T09:26:51.547Z,1.70
2019-03-05T09:29:18.104Z,1.70
2019-03-05T09:31:46.650Z,1.60
2019-03-05T09:34:14.943Z,1.20
2019-03-05T09:36:51.044Z,1.17
2019-03-05T09:39:13.323Z,1.00
2019-03-05T09:41:41.962Z,0.90
2019-03-05T09:44:10.254Z,1.40
2019-03-05T09:46:38.487Z,1.00
2019-03-05T09:49:06.798Z,0.83
2019-03-05T09:51:35.106Z,1.10
2019-03-05T09:54:03.390Z,1.17
2019-03-05T09:56:31.636Z,0.87
2019-03-05T09:58:59.914Z,1.00
2019-03-05T10:01:28.364Z,0.80
2019-03-05T10:03:56.628Z,0.97
2019-03-05T10:06:25.248Z,0.60
2019-03-05T10:08:53.596Z,1.20
2019-03-05T10:11:21.881Z,3.17
2019-03-05T10:13:50.188Z,0.90
2019-03-05T10:16:18.519Z,0.70
2019-03-05T10:18:46.822Z,0.70
2019-03-05T10:21:15.306Z,0.80
2019-03-05T10:23:43.587Z,0.80
2019-03-05T10:26:12.227Z,0.70
2019-03-05T10:28:40.549Z,1.00
2019-03-05T10:31:08.865Z,0.80
2019-03-05T10:33:37.159Z,0.90
2019-03-05T10:36:05.465Z,1.07
2019-03-05T10:38:33.861Z,0.70
2019-03-05T10:41:02.359Z,0.90
2019-03-05T10:43:30.779Z,0.87
2019-03-05T10:45:59.150Z,0.77
2019-03-05T10:48:30.152Z,0.80
2019-03-05T10:50:57.489Z,0.90
2019-03-05T10:53:25.875Z,0.97
2019-03-05T10:55:54.150Z,0.90
2019-03-05T10:58:32.734Z,0.90
2019-03-05T11:00:54.180Z,1.07
2019-03-05T11:03:24.203Z,0.83
2019-03-05T11:05:52.873Z,0.90
2019-03-05T11:08:24.046Z,1.10
2019-03-05T11:10:53.226Z,1.13
2019-03-05T11:13:21.482Z,0.80
2019-03-05T11:15:53.109Z,0.90
2019-03-05T11:18:29.244Z,0.90
2019-03-05T11:20:54.225Z,1.10
2019-03-05T11:23:22.795Z,0.90
2019-03-05T11:25:51.425Z,0.70
2019-03-05T11:28:20.598Z,0.80
2019-03-05T11:30:48.883Z,0.80
2019-03-05T11:33:17.147Z,3.60
2019-03-05T11:35:45.432Z,1.50
2019-03-05T11:38:13.869Z,0.80
2019-03-05T11:40:42.471Z,0.90
2019-03-05T11:43:12.922Z,0.80
2019-03-05T11:45:42.241Z,0.73
2019-03-05T11:48:10.607Z,0.80
2019-03-05T11:50:39.282Z,1.00
2019-03-05T11:53:07.543Z,1.10
2019-03-05T11:55:35.920Z,1.03
2019-03-05T11:58:04.340Z,1.03
2019-03-05T12:00:53.881Z,0.93
2019-03-05T12:03:22.198Z,1.20
2019-03-05T12:05:50.560Z,1.10
2019-03-05T12:08:18.820Z,0.90
2019-03-05T12:10:47.102Z,1.27
2019-03-05T12:13:15.441Z,1.10
2019-03-05T12:15:45.569Z,1.10
2019-03-05T12:18:13.886Z,1.20
2019-03-05T12:20:42.239Z,1.30
2019-03-05T12:23:11.706Z,1.40
2019-03-05T12:25:41.228Z,1.47
2019-03-05T12:28:11.025Z,1.40
2019-03-05T12:30:39.811Z,1.30
2019-03-05T12:33:08.632Z,1.40
2019-03-05T12:35:37.117Z,1.40
2019-03-05T12:38:06.097Z,1.50
2019-03-05T12:40:34.445Z,1.20
2019-03-05T12:43:02.708Z,1.10
2019-03-05T12:45:31.021Z,1.33
2019-03-05T12:47:59.623Z,1.00
2019-03-05T12:50:29.947Z,1.07
2019-03-05T12:52:58.335Z,1.00
2019-03-05T12:55:26.615Z,0.80
2019-03-05T12:57:54.867Z,1.00
2019-03-05T13:00:26.211Z,1.00
2019-03-05T13:02:54.748Z,0.93
2019-03-05T13:05:23.122Z,0.97
2019-03-05T13:07:52.484Z,1.00
2019-03-05T13:10:34.851Z,1.00
2019-03-05T13:12:59.874Z,1.00
2019-03-05T13:15:35.335Z,1.00
2019-03-05T13:18:03.591Z,1.00
2019-03-05T13:20:31.866Z,0.90
2019-03-05T13:23:00.471Z,0.70
2019-03-05T13:25:29.910Z,0.83
2019-03-05T13:28:02.176Z,1.00
2019-03-05T13:30:32.556Z,1.00
2019-03-05T13:33:01.015Z,0.80
2019-03-05T13:35:30.850Z,0.80
2019-03-05T13:38:03.503Z,0.90
2019-03-05T13:40:34.056Z,0.60
2019-03-05T13:43:01.705Z,0.50
2019-03-05T13:45:29.986Z,0.50
2019-03-05T13:48:07.333Z,0.50
2019-03-05T13:50:48.272Z,0.63
2019-03-05T13:53:25.695Z,0.60
2019-03-05T13:56:15.849Z,0.60
2019-03-05T13:59:15.949Z,0.50
2019-03-05T14:01:44.396Z,0.70
2019-03-05T14:04:41.516Z,0.70
2019-03-05T14:07:38.622Z,0.63
2019-03-05T14:10:06.911Z,0.60
2019-03-05T14:12:35.233Z,0.90
2019-03-05T14:15:03.979Z,0.90
2019-03-05T14:17:33.016Z,0.70
2019-03-05T14:20:01.376Z,0.70
2019-03-05T14:22:29.706Z,0.80
2019-03-05T14:25:02.295Z,0.80
2019-03-05T14:27:28.067Z,0.67
2019-03-05T14:29:56.341Z,0.80
2019-03-05T14:32:24.701Z,0.70
2019-03-05T14:34:56.217Z,0.60
2019-03-05T14:37:24.590Z,0.70
2019-03-05T14:39:52.888Z,0.87
2019-03-05T14:42:21.502Z,0.80
2019-03-05T14:44:49.877Z,0.90
2019-03-05T14:47:18.707Z,1.33
2019-03-05T14:49:47.251Z,0.90
2019-03-05T14:52:15.616Z,0.93
2019-03-05T14:54:43.951Z,1.10
2019-03-05T14:57:12.418Z,0.97
2019-03-05T14:59:40.708Z,0.90
2019-03-05T15:02:09.008Z,0.90
2019-03-05T15:04:37.318Z,0.90
2019-03-05T15:07:05.595Z,0.90
2019-03-05T15:09:33.886Z,1.10
2019-03-05T15:12:02.216Z,0.70
2019-03-05T15:14:30.952Z,0.80
2019-03-05T15:17:00.671Z,0.70
2019-03-05T15:19:29.005Z,0.60
2019-03-05T15:21:57.626Z,0.60
2019-03-05T15:24:25.944Z,0.60
2019-03-05T15:26:54.317Z,0.70
2019-03-05T15:29:24.895Z,0.97
2019-03-05T15:31:53.579Z,0.70
2019-03-05T15:34:21.891Z,0.90
2019-03-05T15:36:52.046Z,0.90
2019-03-05T15:39:20.249Z,1.10
2019-03-05T15:41:48.636Z,0.80
2019-03-05T15:44:16.936Z,1.00
2019-03-05T15:46:45.319Z,0.80
2019-03-05T15:49:13.642Z,0.73
2019-03-05T15:51:42.033Z,0.80
2019-03-05T15:54:10.817Z,0.80
2019-03-05T15:56:39.115Z,0.80
2019-03-05T15:59:07.434Z,0.87
2019-03-05T16:01:35.745Z,0.90
2019-03-05T16:04:04.403Z,0.90
2019-03-05T16:06:34.125Z,1.70
2019-03-05T16:09:03.616Z,1.00
2019-03-05T16:11:34.211Z,1.23
2019-03-05T16:14:02.444Z,1.17
2019-03-05T16:16:31.437Z,2.00
2019-03-05T16:18:59.675Z,4.40
2019-03-05T16:21:27.943Z,2.63
2019-03-05T16:23:56.200Z,1.20
2019-03-05T16:26:24.806Z,1.20
2019-03-05T16:28:53.278Z,1.10
2019-03-05T16:31:32.415Z,1.30
2019-03-05T16:34:05.139Z,1.10
2019-03-05T16:36:38.020Z,1.10
2019-03-05T16:39:20.157Z,1.30
2019-03-05T16:42:05.390Z,1.20
2019-03-05T16:44:36.059Z,1.23
2019-03-05T16:47:12.154Z,1.37
2019-03-05T16:49:45.055Z,1.53
2019-03-05T16:52:15.009Z,1.57
2019-03-05T16:54:47.832Z,1.73
2019-03-05T16:57:20.616Z,1.20
2019-03-05T16:59:50.500Z,1.30
2019-03-05T17:02:20.440Z,1.10
2019-03-05T17:04:59.100Z,1.33
2019-03-05T17:07:47.752Z,1.73
2019-03-05T17:10:35.379Z,6.07
2019-03-05T17:13:03.970Z,4.47
2019-03-05T17:15:32.646Z,2.30
2019-03-05T17:18:00.925Z,2.00
2019-03-05T17:20:29.167Z,2.63
2019-03-05T17:22:57.529Z,2.00
2019-03-05T17:25:25.959Z,1.60
2019-03-05T17:27:54.298Z,2.37
2019-03-05T17:30:22.584Z,1.90
2019-03-05T17:32:51.359Z,1.90
2019-03-05T17:35:19.630Z,1.30
2019-03-05T17:37:49.023Z,1.63
2019-03-05T17:40:17.678Z,1.50
2019-03-05T17:42:46.007Z,1.57
2019-03-05T17:45:17.422Z,1.40
2019-03-05T17:47:45.742Z,1.50
2019-03-05T17:50:14.461Z,1.40
2019-03-05T17:52:42.802Z,1.37
2019-03-05T17:55:23.894Z,1.50
2019-03-05T17:57:46.458Z,1.80
2019-03-05T18:00:20.123Z,2.00
2019-03-05T18:02:48.376Z,1.87
2019-03-05T18:05:18.987Z,2.13
2019-03-05T18:07:47.042Z,2.67
2019-03-05T18:10:15.341Z,2.50
2019-03-05T18:12:43.674Z,2.00
2019-03-05T18:15:13.801Z,2.00
2019-03-05T18:17:42.118Z,2.20
2019-03-05T18:20:18.693Z,1.77
2019-03-05T18:22:47.214Z,1.90
2019-03-05T18:25:16.571Z,2.20
2019-03-05T18:27:45.300Z,2.20
2019-03-05T18:30:21.910Z,1.93
2019-03-05T18:32:50.222Z,2.07
2019-03-05T18:35:18.501Z,1.60
2019-03-05T18:37:46.847Z,1.73
2019-03-05T18:40:20.062Z,1.63
2019-03-05T18:42:48.322Z,11.23
2019-03-05T18:45:23.040Z,5.13
2019-03-05T18:47:51.457Z,2.40
2019-03-05T18:50:21.914Z,1.70
2019-03-05T18:52:52.140Z,1.50
2019-03-05T18:55:22.069Z,2.00
2019-03-05T18:57:51.957Z,1.90
2019-03-05T19:00:23.585Z,1.87
2019-03-05T19:02:53.791Z,2.13
2019-03-05T19:05:22.299Z,1.90
2019-03-05T19:07:50.918Z,2.40
2019-03-05T19:10:26.499Z,2.40
2019-03-05T19:12:54.853Z,2.10
2019-03-05T19:15:25.379Z,2.03
2019-03-05T19:17:53.728Z,1.80
2019-03-05T19:20:24.110Z,2.10
2019-03-05T19:22:52.447Z,2.33
2019-03-05T19:25:27.075Z,2.10
2019-03-05T19:27:55.347Z,2.30
2019-03-05T19:30:36.540Z,2.27
2019-03-05T19:33:04.811Z,2.67
2019-03-05T19:35:33.180Z,5.53
2019-03-05T19:38:01.435Z,3.60
2019-03-05T19:40:35.790Z,3.10
2019-03-05T19:43:17.374Z,2.80
2019-03-05T19:45:45.728Z,2.27
2019-03-05T19:48:13.966Z,2.50
2019-03-05T19:50:42.612Z,2.30
2019-03-05T19:53:10.859Z,2.70
2019-03-05T19:55:40.844Z,2.90
2019-03-05T19:58:10.175Z,2.97
2019-03-05T20:00:42.117Z,3.47
2019-03-05T20:03:10.360Z,3.40
2019-03-05T20:05:40.151Z,3.40
2019-03-05T20:08:08.651Z,3.07
2019-03-05T20:10:39.177Z,3.70
2019-03-05T20:13:07.539Z,3.70
2019-03-05T20:15:36.241Z,3.90
2019-03-05T20:18:04.619Z,3.80
2019-03-05T20:20:32.989Z,3.57
2019-03-05T20:23:02.855Z,3.70
2019-03-05T20:25:31.724Z,3.70
2019-03-05T20:28:00.055Z,4.20
2019-03-05T20:30:28.335Z,3.93
2019-03-05T20:32:56.601Z,4.70
2019-03-05T20:35:24.954Z,4.87
2019-03-05T20:37:53.326Z,4.83
2019-03-05T20:40:31.564Z,4.63
2019-03-05T20:43:02.474Z,4.90
2019-03-05T20:48:13.316Z,5.60
2019-03-05T20:50:42.254Z,5.10
2019-03-05T20:53:10.618Z,5.90
2019-03-05T20:55:39.361Z,6.23
2019-03-05T20:58:07.685Z,5.47
2019-03-05T21:00:38.374Z,5.77
2019-03-05T21:03:11.439Z,5.17
2019-03-05T21:05:42.602Z,7.10
2019-03-05T21:08:11.240Z,8.23
2019-03-05T21:10:39.633Z,7.73
2019-03-05T21:13:08.171Z,7.33
2019-03-05T21:15:36.959Z,8.57
2019-03-05T21:18:08.183Z,8.53
2019-03-05T21:20:36.459Z,7.23
2019-03-05T21:23:04.783Z,8.73
2019-03-05T21:25:33.368Z,8.43
2019-03-05T21:28:01.800Z,8.07
2019-03-05T21:30:30.197Z,8.87
2019-03-05T21:32:58.535Z,9.30
2019-03-05T21:35:27.134Z,9.67
2019-03-05T21:37:57.719Z,9.40
2019-03-05T21:40:32.980Z,10.67
2019-03-05T21:43:01.275Z,10.97
2019-03-05T21:45:37.730Z,10.57
2019-03-05T21:48:06.338Z,9.90
2019-03-05T21:50:34.739Z,9.57
2019-03-05T21:53:03.306Z,10.20
2019-03-05T21:55:31.607Z,10.33
2019-03-05T21:57:59.961Z,10.50
2019-03-05T22:00:36.928Z,9.37
2019-03-05T22:03:05.755Z,10.40
2019-03-05T22:05:37.210Z,10.43
2019-03-05T22:08:05.478Z,10.77
2019-03-05T22:10:34.016Z,11.37
2019-03-05T22:13:02.372Z,9.80
2019-03-05T22:15:32.390Z,10.77
2019-03-05T22:18:00.774Z,10.30
2019-03-05T22:20:29.070Z,9.87
2019-03-05T22:22:57.646Z,10.63
2019-03-05T22:25:25.921Z,10.93
2019-03-05T22:27:54.583Z,10.63
2019-03-05T22:30:28.631Z,10.90
2019-03-05T22:32:56.915Z,11.87
2019-03-05T22:35:25.733Z,9.93
2019-03-05T22:37:54.077Z,9.53
2019-03-05T22:40:24.267Z,10.50
2019-03-05T22:42:52.535Z,10.57
2019-03-05T22:45:24.063Z,10.33
2019-03-05T22:47:52.498Z,10.37
2019-03-05T22:50:20.764Z,10.07
2019-03-05T22:52:49.044Z,9.63
2019-03-05T22:55:17.908Z,9.87
2019-03-05T22:57:46.662Z,10.00
2019-03-05T23:00:25.848Z,9.33
2019-03-05T23:02:54.376Z,9.63
2019-03-05T23:05:23.177Z,8.93
2019-03-05T23:07:52.046Z,8.87
2019-03-05T23:10:20.557Z,9.93
2019-03-05T23:12:49.134Z,8.97
2019-03-05T23:15:18.560Z,9.63
2019-03-05T23:17:46.912Z,9.20
2019-03-05T23:20:16.204Z,8.73
2019-03-05T23:22:44.743Z,8.77
2019-03-05T23:25:14.548Z,8.73
2019-03-05T23:27:43.296Z,7.63
2019-03-05T23:30:14.188Z,7.40
2019-03-05T23:32:42.486Z,7.43
2019-03-05T23:35:13.442Z,7.03
2019-03-05T23:37:41.744Z,6.77
2019-03-05T23:40:11.168Z,6.90
2019-03-05T23:42:39.789Z,6.83
2019-03-05T23:45:12.928Z,6.87
2019-03-05T23:47:41.227Z,7.20
2019-03-05T23:50:11.494Z,6.57
2019-03-05T23:52:42.271Z,6.37
2019-03-05T23:55:11.539Z,7.13
2019-03-05T23:57:40.124Z,5.80
